createdAt,value
2019-06-27T00:00:42.583Z,99.90
2019-06-27T00:03:13.180Z,99.90
2019-06-27T00:05:43.646Z,99.90
2019-06-27T00:08:14.204Z,99.90
2019-06-27T00:13:14.860Z,99.90
2019-06-27T00:15:45.428Z,99.90
2019-06-27T00:18:15.889Z,99.90
2019-06-27T00:20:47.120Z,99.90
2019-06-27T00:23:17.699Z,99.90
2019-06-27T00:25:48.167Z,99.90
2019-06-27T00:28:18.746Z,99.90
2019-06-27T00:30:49.118Z,99.90
2019-06-27T00:33:19.592Z,99.90
2019-06-27T00:35:50.284Z,99.90
2019-06-27T00:38:21.777Z,99.90
2019-06-27T00:40:52.172Z,99.90
2019-06-27T00:43:23.528Z,99.90
2019-06-27T00:45:55.077Z,99.90
2019-06-27T00:48:25.807Z,99.90
2019-06-27T00:50:56.129Z,99.90
2019-06-27T00:53:26.708Z,99.90
2019-06-27T00:55:57.152Z,99.90
2019-06-27T00:58:27.649Z,99.90
2019-06-27T01:00:58.127Z,99.90
2019-06-27T01:03:28.607Z,99.90
2019-06-27T01:05:59.204Z,99.90
2019-06-27T01:08:29.823Z,99.90
2019-06-27T01:11:00.464Z,99.90
2019-06-27T01:13:31.024Z,99.90
2019-06-27T01:16:01.385Z,99.90
2019-06-27T01:18:31.983Z,99.90
2019-06-27T01:21:02.562Z,99.90
2019-06-27T01:23:32.982Z,99.90
2019-06-27T01:26:03.435Z,99.90
2019-06-27T01:28:33.985Z,99.90
2019-06-27T01:31:04.394Z,99.90
2019-06-27T01:33:34.848Z,99.90
2019-06-27T01:36:05.444Z,99.90
2019-06-27T01:38:36.041Z,99.90
2019-06-27T01:41:06.378Z,99.90
2019-06-27T01:43:37.548Z,99.90
2019-06-27T01:46:08.092Z,99.90
2019-06-27T01:48:38.853Z,99.90
2019-06-27T01:51:09.216Z,99.90
2019-06-27T01:53:39.698Z,99.90
2019-06-27T01:56:10.192Z,99.90
2019-06-27T01:58:41.115Z,99.90
2019-06-27T02:01:11.760Z,99.90
2019-06-27T02:03:42.545Z,99.90
2019-06-27T02:06:13.124Z,99.90
2019-06-27T02:08:43.808Z,99.90
2019-06-27T02:11:14.605Z,99.90
2019-06-27T02:13:45.176Z,99.90
2019-06-27T02:16:15.635Z,99.90
2019-06-27T02:18:47.112Z,99.90
2019-06-27T02:21:17.713Z,99.90
2019-06-27T02:23:48.220Z,99.90
2019-06-27T02:26:18.675Z,99.90
2019-06-27T02:28:49.300Z,99.90
2019-06-27T02:31:21.165Z,99.90
2019-06-27T02:33:51.742Z,99.90
2019-06-27T02:36:22.322Z,99.90
2019-06-27T02:38:52.959Z,99.90
2019-06-27T02:41:23.790Z,99.90
2019-06-27T02:43:55.240Z,99.90
2019-06-27T02:46:25.686Z,99.90
2019-06-27T02:48:56.263Z,99.90
2019-06-27T02:51:26.740Z,99.90
2019-06-27T02:53:57.324Z,99.90
2019-06-27T02:56:27.669Z,99.90
2019-06-27T02:58:58.165Z,99.90
2019-06-27T03:01:28.736Z,99.90
2019-06-27T03:03:59.221Z,99.90
2019-06-27T03:06:29.822Z,99.90
2019-06-27T03:09:00.505Z,99.90
2019-06-27T03:11:31.087Z,99.90
2019-06-27T03:14:01.642Z,99.90
2019-06-27T03:16:32.218Z,99.90
2019-06-27T03:19:02.629Z,99.90
2019-06-27T03:21:33.176Z,99.90
2019-06-27T03:24:03.856Z,99.90
2019-06-27T03:26:34.261Z,99.90
2019-06-27T03:29:04.948Z,99.90
2019-06-27T03:31:35.382Z,99.90
2019-06-27T03:34:05.850Z,99.90
2019-06-27T03:36:36.372Z,99.90
2019-06-27T03:39:07.239Z,99.90
2019-06-27T03:44:07.425Z,99.90
2019-06-27T03:46:38.164Z,99.90
2019-06-27T03:49:09.049Z,99.90
2019-06-27T03:51:39.627Z,99.90
2019-06-27T03:54:10.220Z,99.90
2019-06-27T03:56:40.681Z,99.90
2019-06-27T03:59:13.385Z,99.90
2019-06-27T04:01:42.125Z,99.90
2019-06-27T04:04:12.739Z,99.90
2019-06-27T04:06:43.231Z,99.90
2019-06-27T04:09:13.764Z,99.90
2019-06-27T04:11:44.244Z,99.90
2019-06-27T04:14:14.744Z,99.90
2019-06-27T04:16:48.949Z,99.90
2019-06-27T04:19:15.808Z,99.90
2019-06-27T04:21:46.380Z,99.90
2019-06-27T04:24:16.989Z,99.90
2019-06-27T04:26:47.421Z,99.90
2019-06-27T04:29:32.624Z,99.90
2019-06-27T04:31:48.497Z,99.90
2019-06-27T04:34:20.056Z,99.90
2019-06-27T04:36:49.552Z,99.90
2019-06-27T04:39:20.138Z,99.90
2019-06-27T04:41:50.611Z,99.90
2019-06-27T04:44:21.094Z,99.90
2019-06-27T04:46:51.466Z,99.90
2019-06-27T04:49:21.949Z,99.90
2019-06-27T04:51:52.521Z,99.90
2019-06-27T04:54:23.028Z,99.90
2019-06-27T04:56:53.396Z,99.90
2019-06-27T04:59:23.881Z,99.90
2019-06-27T05:01:55.213Z,99.90
2019-06-27T05:04:25.649Z,99.90
2019-06-27T05:06:56.106Z,99.90
2019-06-27T05:09:26.888Z,99.90
2019-06-27T05:11:57.364Z,99.90
2019-06-27T05:14:27.863Z,99.90
2019-06-27T05:16:58.444Z,99.90
2019-06-27T05:19:28.982Z,99.90
2019-06-27T05:22:00.364Z,99.90
2019-06-27T05:24:30.900Z,99.90
2019-06-27T05:27:01.186Z,99.90
2019-06-27T05:29:32.811Z,99.90
2019-06-27T05:32:03.251Z,99.90
2019-06-27T05:34:33.844Z,99.90
2019-06-27T05:37:04.281Z,99.90
2019-06-27T05:39:34.753Z,99.90
2019-06-27T05:42:05.253Z,99.90
2019-06-27T05:44:35.698Z,99.90
2019-06-27T05:47:06.503Z,99.90
2019-06-27T05:49:36.955Z,99.90
2019-06-27T05:52:08.349Z,99.90
2019-06-27T05:54:38.736Z,99.90
2019-06-27T05:57:09.242Z,99.90
2019-06-27T05:59:40.663Z,99.90
2019-06-27T06:02:11.086Z,99.90
2019-06-27T06:07:11.153Z,99.90
2019-06-27T06:09:42.263Z,99.90
2019-06-27T06:12:12.683Z,99.90
2019-06-27T06:14:43.165Z,99.90
2019-06-27T06:17:13.538Z,99.90
2019-06-27T06:19:43.948Z,99.90
2019-06-27T06:22:14.395Z,99.90
2019-06-27T06:24:45.584Z,99.90
2019-06-27T06:27:15.964Z,99.90
2019-06-27T06:29:46.442Z,99.90
2019-06-27T06:32:16.869Z,99.90
2019-06-27T06:34:47.245Z,99.90
2019-06-27T06:37:17.667Z,99.90
2019-06-27T06:39:48.258Z,99.90
2019-06-27T06:42:19.684Z,99.90
2019-06-27T06:44:50.309Z,99.90
2019-06-27T06:47:20.836Z,99.90
2019-06-27T06:49:51.632Z,99.90
2019-06-27T06:52:22.195Z,99.90
2019-06-27T06:54:52.913Z,99.90
2019-06-27T06:57:23.352Z,99.90
2019-06-27T06:59:54.680Z,99.90
2019-06-27T07:02:25.171Z,99.90
2019-06-27T07:04:55.821Z,99.90
2019-06-27T07:07:26.552Z,99.90
2019-06-27T07:09:57.321Z,99.90
2019-06-27T07:12:27.786Z,99.90
2019-06-27T07:14:58.221Z,99.90
2019-06-27T07:17:28.717Z,99.90
2019-06-27T07:19:59.155Z,99.90
2019-06-27T07:22:29.703Z,99.90
2019-06-27T07:25:00.167Z,99.90
2019-06-27T07:27:30.519Z,99.90
2019-06-27T07:30:01.011Z,99.90
2019-06-27T07:32:31.460Z,99.90
2019-06-27T07:37:32.079Z,99.90
2019-06-27T07:40:02.974Z,99.90
2019-06-27T07:42:33.445Z,99.90
2019-06-27T07:45:05.744Z,99.90
2019-06-27T07:47:36.063Z,99.90
2019-06-27T07:50:07.354Z,99.90
2019-06-27T07:52:38.063Z,99.90
2019-06-27T07:55:08.822Z,99.90
2019-06-27T07:57:39.236Z,99.90
2019-06-27T08:00:10.094Z,99.90
2019-06-27T08:02:40.667Z,99.90
2019-06-27T08:05:11.343Z,99.90
2019-06-27T08:07:41.899Z,99.90
2019-06-27T08:10:12.477Z,99.90
2019-06-27T08:12:42.941Z,99.90
2019-06-27T08:15:13.587Z,99.90
2019-06-27T08:17:43.976Z,99.90
2019-06-27T08:20:14.655Z,99.90
2019-06-27T08:22:45.128Z,99.90
2019-06-27T08:25:15.986Z,99.90
2019-06-27T08:27:46.946Z,99.90
2019-06-27T08:30:17.422Z,99.90
2019-06-27T08:32:47.921Z,99.90
2019-06-27T08:35:18.523Z,99.90
2019-06-27T08:37:49.080Z,99.90
2019-06-27T08:40:19.890Z,99.90
2019-06-27T08:42:50.388Z,99.90
2019-06-27T08:45:21.295Z,99.90
2019-06-27T08:47:51.884Z,99.90
2019-06-27T08:50:22.633Z,99.90
2019-06-27T08:52:52.991Z,99.90
2019-06-27T08:55:23.392Z,99.90
2019-06-27T08:57:53.935Z,99.90
2019-06-27T09:05:23.670Z,99.90
2019-06-27T09:07:54.062Z,99.90
2019-06-27T09:10:24.508Z,99.90
2019-06-27T09:12:54.940Z,99.90
2019-06-27T09:15:25.487Z,99.90
2019-06-27T09:17:55.920Z,99.90
2019-06-27T09:20:26.539Z,99.90
2019-06-27T09:25:26.695Z,99.90
2019-06-27T09:27:57.489Z,99.90
2019-06-27T09:30:28.115Z,99.90
2019-06-27T09:32:58.499Z,99.90
2019-06-27T09:35:29.306Z,99.90
2019-06-27T09:37:59.746Z,99.90
2019-06-27T09:40:30.207Z,99.90
2019-06-27T09:43:00.881Z,99.90
2019-06-27T09:45:31.412Z,99.90
2019-06-27T09:48:01.940Z,99.90
2019-06-27T09:50:32.729Z,98.70
2019-06-27T09:53:03.260Z,98.60
2019-06-27T09:55:33.808Z,97.50
2019-06-27T09:58:05.137Z,96.30
2019-06-27T10:00:35.717Z,97.90
2019-06-27T10:03:06.289Z,96.60
2019-06-27T10:05:36.963Z,97.50
2019-06-27T10:08:07.474Z,98.30
2019-06-27T10:10:38.163Z,98.10
2019-06-27T10:13:08.634Z,97.20
2019-06-27T10:15:39.216Z,95.90
2019-06-27T10:18:09.536Z,94.60
2019-06-27T10:20:40.153Z,93.20
2019-06-27T10:23:10.321Z,94.30
2019-06-27T10:25:40.564Z,94.10
2019-06-27T10:28:11.226Z,94.10
2019-06-27T10:30:41.404Z,94.30
2019-06-27T10:33:11.551Z,94.50
2019-06-27T10:35:42.091Z,93.60
2019-06-27T10:38:12.545Z,92.30
2019-06-27T10:40:43.111Z,91.70
2019-06-27T10:43:13.542Z,92.30
2019-06-27T10:45:44.776Z,91.30
2019-06-27T10:48:15.163Z,90.70
2019-06-27T10:50:46.606Z,87.90
2019-06-27T10:53:16.261Z,88.40
2019-06-27T10:55:46.788Z,89.20
2019-06-27T10:58:17.172Z,90.10
2019-06-27T11:00:47.744Z,89.90
2019-06-27T11:03:17.917Z,90.20
2019-06-27T11:05:48.147Z,89.50
2019-06-27T11:08:18.736Z,88.30
2019-06-27T11:10:49.277Z,83.10
2019-06-27T11:13:19.944Z,78.60
2019-06-27T11:15:50.456Z,75.00
2019-06-27T11:18:21.548Z,76.00
2019-06-27T11:20:51.321Z,76.10
2019-06-27T11:23:21.567Z,74.30
2019-06-27T11:25:52.183Z,76.40
2019-06-27T11:30:52.201Z,73.30
2019-06-27T11:33:32.228Z,71.80
2019-06-27T11:35:53.335Z,70.20
2019-06-27T11:38:23.821Z,69.70
2019-06-27T11:40:54.249Z,70.50
2019-06-27T11:43:24.680Z,69.60
2019-06-27T11:45:55.321Z,70.20
2019-06-27T11:48:25.707Z,70.90
2019-06-27T11:50:56.159Z,68.80
2019-06-27T11:53:26.619Z,67.60
2019-06-27T11:55:57.243Z,67.50
2019-06-27T11:58:27.918Z,67.50
2019-06-27T12:00:58.489Z,67.40
2019-06-27T12:03:28.878Z,67.20
2019-06-27T12:05:59.504Z,67.70
2019-06-27T12:08:30.038Z,67.80
2019-06-27T12:11:00.682Z,67.50
2019-06-27T12:13:31.345Z,65.30
2019-06-27T12:16:01.936Z,66.20
2019-06-27T12:18:32.382Z,65.40
2019-06-27T12:21:05.895Z,64.50
2019-06-27T12:23:33.588Z,63.40
2019-06-27T12:26:04.089Z,64.00
2019-06-27T12:28:34.642Z,62.40
2019-06-27T12:31:19.403Z,64.70
2019-06-27T12:33:35.883Z,65.30
2019-06-27T12:36:06.623Z,71.20
2019-06-27T12:38:37.041Z,64.60
2019-06-27T12:41:07.600Z,62.70
2019-06-27T12:43:38.252Z,64.70
2019-06-27T12:46:08.767Z,62.30
2019-06-27T12:48:39.043Z,62.80
2019-06-27T12:51:09.950Z,63.10
2019-06-27T12:53:40.402Z,64.50
2019-06-27T12:56:11.257Z,62.10
2019-06-27T12:58:42.627Z,62.60
2019-06-27T13:01:13.266Z,64.30
2019-06-27T13:03:43.737Z,65.10
2019-06-27T13:06:14.319Z,65.50
2019-06-27T13:08:44.787Z,62.50
2019-06-27T13:11:15.432Z,64.20
2019-06-27T13:13:45.900Z,63.50
2019-06-27T13:16:16.437Z,63.30
2019-06-27T13:18:46.903Z,62.90
2019-06-27T13:21:17.488Z,62.80
2019-06-27T13:23:49.098Z,62.50
2019-06-27T13:26:19.110Z,60.40
2019-06-27T13:28:49.664Z,60.70
2019-06-27T13:31:20.352Z,59.40
2019-06-27T13:33:50.880Z,59.70
2019-06-27T13:36:21.496Z,59.00
2019-06-27T13:38:51.980Z,57.30
2019-06-27T13:41:22.548Z,56.90
2019-06-27T13:43:53.666Z,59.00
2019-06-27T13:46:24.139Z,57.50
2019-06-27T13:48:54.642Z,57.30
2019-06-27T13:51:25.086Z,59.10
2019-06-27T13:53:55.448Z,58.80
2019-06-27T13:56:26.033Z,57.60
2019-06-27T13:59:05.263Z,58.60
2019-06-27T14:01:35.747Z,57.20
2019-06-27T14:04:06.093Z,59.10
2019-06-27T14:06:36.564Z,58.40
2019-06-27T14:09:07.107Z,58.90
2019-06-27T14:14:07.173Z,59.90
2019-06-27T14:16:37.639Z,60.40
2019-06-27T14:19:08.033Z,59.30
2019-06-27T14:21:38.611Z,59.60
2019-06-27T14:24:09.202Z,59.90
2019-06-27T14:26:39.493Z,58.50
2019-06-27T14:29:10.019Z,59.50
2019-06-27T14:31:40.433Z,59.10
2019-06-27T14:34:10.747Z,60.10
2019-06-27T14:36:41.266Z,59.70
2019-06-27T14:41:41.373Z,59.00
2019-06-27T14:44:11.989Z,58.50
2019-06-27T14:46:42.722Z,59.50
2019-06-27T14:49:13.017Z,59.00
2019-06-27T14:51:44.172Z,58.40
2019-06-27T14:54:14.588Z,58.30
2019-06-27T14:56:44.967Z,59.10
2019-06-27T14:59:15.574Z,58.70
2019-06-27T15:01:46.123Z,58.70
2019-06-27T15:04:16.646Z,59.40
2019-06-27T15:06:47.349Z,58.30
2019-06-27T15:11:47.671Z,59.40
2019-06-27T15:16:47.740Z,58.50
2019-06-27T15:19:18.215Z,58.10
2019-06-27T15:21:48.569Z,58.40
2019-06-27T15:24:19.060Z,58.30
2019-06-27T15:26:49.436Z,57.70
2019-06-27T15:29:19.940Z,58.20
2019-06-27T15:31:50.322Z,57.00
2019-06-27T15:34:20.815Z,58.70
2019-06-27T15:36:51.460Z,57.00
2019-06-27T15:39:22.109Z,55.30
2019-06-27T15:41:53.544Z,56.10
2019-06-27T15:44:23.930Z,56.80
2019-06-27T15:49:42.690Z,56.20
2019-06-27T15:52:13.266Z,56.20
2019-06-27T15:54:43.839Z,55.60
2019-06-27T15:57:14.208Z,55.80
2019-06-27T15:59:45.005Z,55.90
2019-06-27T16:02:15.625Z,55.80
2019-06-27T16:04:45.970Z,55.40
2019-06-27T16:07:16.432Z,56.00
2019-06-27T16:09:46.928Z,55.70
2019-06-27T16:12:18.244Z,55.20
2019-06-27T16:14:48.699Z,55.80
2019-06-27T16:17:19.278Z,55.30
2019-06-27T16:19:49.623Z,55.90
2019-06-27T16:22:19.990Z,56.00
2019-06-27T16:24:50.528Z,54.40
2019-06-27T16:27:21.393Z,55.20
2019-06-27T16:29:51.923Z,56.00
2019-06-27T16:32:22.321Z,55.60
2019-06-27T16:34:52.891Z,56.00
2019-06-27T16:37:23.267Z,55.40
2019-06-27T16:39:53.902Z,54.70
2019-06-27T16:42:24.589Z,55.40
2019-06-27T16:44:55.235Z,54.80
2019-06-27T16:47:25.851Z,55.60
2019-06-27T16:49:56.372Z,55.90
2019-06-27T16:52:27.073Z,56.20
2019-06-27T16:54:57.579Z,56.70
2019-06-27T16:57:28.051Z,58.00
2019-06-27T16:59:58.629Z,58.10
2019-06-27T17:02:29.092Z,57.50
2019-06-27T17:05:00.457Z,57.10
2019-06-27T17:07:30.846Z,58.30
2019-06-27T17:10:01.393Z,58.30
2019-06-27T17:12:31.787Z,59.00
2019-06-27T17:15:02.357Z,59.00
2019-06-27T17:17:32.751Z,58.90
2019-06-27T17:20:03.331Z,58.60
2019-06-27T17:22:34.679Z,59.70
2019-06-27T17:25:05.124Z,59.40
2019-06-27T17:27:35.725Z,59.80
2019-06-27T17:30:07.280Z,60.40
2019-06-27T17:32:37.621Z,59.80
2019-06-27T17:35:08.254Z,60.40
2019-06-27T17:37:40.671Z,60.10
2019-06-27T17:40:11.318Z,60.80
2019-06-27T17:42:42.046Z,61.10
2019-06-27T17:45:12.843Z,61.40
2019-06-27T17:47:43.253Z,61.90
2019-06-27T17:50:13.964Z,62.20
2019-06-27T17:52:44.235Z,62.30
2019-06-27T17:55:14.843Z,63.00
2019-06-27T17:57:47.335Z,64.00
2019-06-27T18:00:16.996Z,63.70
2019-06-27T18:02:48.159Z,64.50
2019-06-27T18:05:18.828Z,64.60
2019-06-27T18:07:49.200Z,65.20
2019-06-27T18:10:19.743Z,65.10
2019-06-27T18:12:50.164Z,65.00
2019-06-27T18:15:20.805Z,65.00
2019-06-27T18:17:51.291Z,65.80
2019-06-27T18:20:21.746Z,67.20
2019-06-27T18:22:52.127Z,69.00
2019-06-27T18:25:22.623Z,70.20
2019-06-27T18:27:54.042Z,71.40
2019-06-27T18:30:24.687Z,71.90
2019-06-27T18:32:55.972Z,72.40
2019-06-27T18:35:26.416Z,73.10
2019-06-27T18:37:56.890Z,73.50
2019-06-27T18:40:27.337Z,73.40
2019-06-27T18:43:00.031Z,74.20
2019-06-27T18:45:30.625Z,73.90
2019-06-27T18:48:01.039Z,74.70
2019-06-27T18:50:31.478Z,74.80
2019-06-27T18:53:01.867Z,75.30
2019-06-27T18:58:02.601Z,76.50
2019-06-27T19:00:33.252Z,76.60
2019-06-27T19:05:33.559Z,77.60
2019-06-27T19:08:04.035Z,78.00
2019-06-27T19:10:34.440Z,78.40
2019-06-27T19:13:05.828Z,78.70
2019-06-27T19:15:36.167Z,79.40
2019-06-27T19:18:08.143Z,80.00
2019-06-27T19:20:45.352Z,80.70
2019-06-27T19:23:20.643Z,81.60
2019-06-27T19:25:51.221Z,82.40
2019-06-27T19:28:21.663Z,83.20
2019-06-27T19:30:52.161Z,83.90
2019-06-27T19:33:22.495Z,84.30
2019-06-27T19:35:53.035Z,85.00
2019-06-27T19:38:23.503Z,85.20
2019-06-27T19:40:53.882Z,86.40
2019-06-27T19:43:28.052Z,86.50
2019-06-27T19:45:56.343Z,86.70
2019-06-27T19:48:27.603Z,87.20
2019-06-27T19:50:58.409Z,87.70
2019-06-27T19:53:28.836Z,88.20
2019-06-27T19:56:00.239Z,88.90
2019-06-27T19:58:30.536Z,89.90
2019-06-27T20:01:01.825Z,90.20
2019-06-27T20:03:32.263Z,90.60
2019-06-27T20:06:02.768Z,90.90
2019-06-27T20:08:33.342Z,91.00
2019-06-27T20:11:03.889Z,91.20
2019-06-27T20:13:34.294Z,91.30
2019-06-27T20:16:04.866Z,91.50
2019-06-27T20:18:36.274Z,91.50
2019-06-27T20:21:07.488Z,91.50
2019-06-27T20:23:37.984Z,91.80
2019-06-27T20:26:08.505Z,91.90
2019-06-27T20:28:39.196Z,92.00
2019-06-27T20:31:09.461Z,92.20
2019-06-27T20:33:39.761Z,92.20
2019-06-27T20:36:10.085Z,92.50
2019-06-27T20:38:40.700Z,92.70
2019-06-27T20:41:11.239Z,92.90
2019-06-27T20:43:41.432Z,93.30
2019-06-27T20:46:11.733Z,93.40
2019-06-27T20:48:42.564Z,93.80
2019-06-27T20:51:13.052Z,94.10
2019-06-27T20:53:43.582Z,94.30
2019-06-27T20:58:43.980Z,94.70
2019-06-27T21:01:14.317Z,94.90
2019-06-27T21:03:44.636Z,95.00
2019-06-27T21:06:14.913Z,95.10
2019-06-27T21:08:51.342Z,95.70
2019-06-27T21:11:15.440Z,95.30
2019-06-27T21:13:45.685Z,95.90
2019-06-27T21:16:15.963Z,95.60
2019-06-27T21:18:46.637Z,95.90
2019-06-27T21:21:18.107Z,96.00
2019-06-27T21:23:48.604Z,96.30
2019-06-27T21:26:19.065Z,96.70
2019-06-27T21:28:49.295Z,97.30
2019-06-27T21:31:19.850Z,97.80
2019-06-27T21:33:50.371Z,98.40
2019-06-27T21:39:06.435Z,99.80
2019-06-27T21:41:21.273Z,99.90
2019-06-27T21:43:51.854Z,99.90
2019-06-27T21:46:22.008Z,99.90
2019-06-27T21:48:52.194Z,99.90
2019-06-27T21:51:22.452Z,99.90
2019-06-27T21:53:52.656Z,99.90
2019-06-27T21:56:22.957Z,99.90
2019-06-27T21:58:53.112Z,99.90
2019-06-27T22:01:23.559Z,99.90
2019-06-27T22:03:53.758Z,99.90
2019-06-27T22:06:24.253Z,99.90
2019-06-27T22:08:55.628Z,99.90
2019-06-27T22:11:25.879Z,99.90
2019-06-27T22:13:56.102Z,99.90
2019-06-27T22:16:27.040Z,99.90
2019-06-27T22:18:57.429Z,99.90
2019-06-27T22:21:27.638Z,99.90
2019-06-27T22:23:57.809Z,99.90
2019-06-27T22:26:28.056Z,99.90
2019-06-27T22:28:58.628Z,99.90
2019-06-27T22:31:29.277Z,99.90
2019-06-27T22:33:59.700Z,99.90
2019-06-27T22:36:30.261Z,99.90
2019-06-27T22:39:05.575Z,99.90
2019-06-27T22:41:41.416Z,99.90
2019-06-27T22:44:16.760Z,99.90
2019-06-27T22:46:52.076Z,99.90
2019-06-27T22:49:21.479Z,99.90
2019-06-27T22:52:55.650Z,99.90
2019-06-27T22:55:26.511Z,99.90
2019-06-27T22:57:57.101Z,99.90
2019-06-27T23:00:27.565Z,99.90
2019-06-27T23:02:59.008Z,99.90
2019-06-27T23:05:29.599Z,99.90
2019-06-27T23:08:00.225Z,99.90
2019-06-27T23:10:30.786Z,99.90
2019-06-27T23:13:01.261Z,99.90
2019-06-27T23:15:31.641Z,99.90
2019-06-27T23:18:02.286Z,99.90
2019-06-27T23:20:32.664Z,99.90
2019-06-27T23:23:03.320Z,99.90
2019-06-27T23:25:33.876Z,99.90
2019-06-27T23:28:04.525Z,99.90
2019-06-27T23:30:34.839Z,99.90
2019-06-27T23:33:05.297Z,99.90
2019-06-27T23:38:05.622Z,99.90
2019-06-27T23:40:36.092Z,99.90
2019-06-27T23:43:06.692Z,99.90
2019-06-27T23:45:37.543Z,99.90
2019-06-27T23:48:08.068Z,99.90
2019-06-27T23:50:38.601Z,99.90
2019-06-27T23:53:09.189Z,99.90
2019-06-27T23:55:40.444Z,99.90
2019-06-27T23:58:11.306Z,99.90
